Time;durP1;ratioP1;P1;durP2;ratioP2;P2;SDS_P1;SDS_P2;PMS_P1;PMS_P2;Temp;Humidity;BMP_temperature;BMP_pressure;BME280_temperature;BME280_humidity;BME280_pressure;Samples;Min_cycle;Max_cycle;Signal;HPM_P1;HPM_P2
2022/11/15 00:02:51;;;;;;;39.60;23.15;;;;;;;3.56;76.16;101041.83;1572708;91;21280;-75
2022/11/15 00:06:16;;;;;;;50.48;25.37;;;;;;;3.41;76.04;101038.05;1572961;89;21299;-76
2022/11/15 00:09:40;;;;;;;50.85;24.18;;;;;;;3.24;76.69;101038.77;1572835;91;21296;-76
2022/11/15 00:12:56;;;;;;;52.33;24.20;;;;;;;3.22;77.25;101038.03;1571575;91;22042;-76
2022/11/15 00:16:08;;;;;;;45.20;24.92;;;;;;;3.20;77.23;101034.59;1571729;91;21772;-76
2022/11/15 00:19:31;;;;;;;50.92;24.10;;;;;;;3.22;77.64;101036.68;1571724;91;21253;-76
2022/11/15 00:22:55;;;;;;;46.45;23.95;;;;;;;3.22;77.80;101028.57;1570712;91;21256;-76
2022/11/15 00:26:20;;;;;;;49.18;23.77;;;;;;;3.17;77.86;101022.64;1571453;91;21263;-76
2022/11/15 00:29:44;;;;;;;48.80;25.95;;;;;;;3.22;78.07;101024.52;1572644;91;21241;-76
2022/11/15 00:33:12;;;;;;;55.10;25.72;;;;;;;3.33;77.99;101029.99;1571196;91;21287;-76
2022/11/15 00:36:29;;;;;;;54.03;26.25;;;;;;;3.32;77.95;101035.03;1571852;91;21351;-76
2022/11/15 00:39:54;;;;;;;54.00;26.55;;;;;;;3.29;77.76;101033.92;1570934;91;21297;-77
2022/11/15 00:43:17;;;;;;;50.98;26.23;;;;;;;3.27;78.13;101023.69;1572129;91;21288;-76
2022/11/15 00:46:41;;;;;;;50.25;27.50;;;;;;;3.36;77.91;101021.30;1572017;91;21241;-76
2022/11/15 00:50:05;;;;;;;49.77;26.30;;;;;;;3.32;77.43;101028.27;1572358;91;21320;-76
2022/11/15 00:53:32;;;;;;;50.52;26.07;;;;;;;3.38;77.37;101025.59;1572024;91;21285;-76
2022/11/15 00:56:55;;;;;;;53.20;25.68;;;;;;;3.41;77.50;101024.03;1572237;91;21252;-76
2022/11/15 01:00:19;;;;;;;51.30;24.80;;;;;;;3.32;77.66;101025.56;1572095;91;21217;-76
2022/11/15 01:03:44;;;;;;;46.60;23.20;;;;;;;3.24;77.25;101017.14;1571111;91;21332;-76
2022/11/15 01:07:08;;;;;;;49.38;21.97;;;;;;;3.25;76.85;101009.92;1572230;91;21277;-76
2022/11/15 01:10:31;;;;;;;44.93;25.17;;;;;;;3.22;76.76;101011.00;1572272;91;21276;-77
2022/11/15 01:13:55;;;;;;;42.20;22.85;;;;;;;3.10;77.26;101008.31;1574315;91;21244;-76
2022/11/15 01:17:19;;;;;;;43.52;25.00;;;;;;;3.11;77.78;101008.23;1574201;91;21938;-77
2022/11/15 01:20:49;;;;;;;46.05;25.02;;;;;;;3.19;77.94;101001.75;1574125;91;21245;-76
2022/11/15 01:24:12;;;;;;;41.18;23.50;;;;;;;3.24;77.76;101001.41;1573153;91;21320;-76
2022/11/15 01:27:38;;;;;;;46.35;23.85;;;;;;;3.13;78.24;100998.16;1574070;91;21260;-76
2022/11/15 01:31:01;;;;;;;47.70;23.32;;;;;;;3.16;78.10;100996.59;1574268;91;21233;-77
2022/11/15 01:34:25;;;;;;;44.53;23.47;;;;;;;3.08;77.93;100994.92;1574203;91;21789;-77
2022/11/15 01:37:51;;;;;;;40.70;22.60;;;;;;;3.07;78.01;100999.95;1573075;91;21835;-76
2022/11/15 01:41:17;;;;;;;44.53;24.70;;;;;;;3.08;78.18;100997.62;1574069;91;21256;-77
2022/11/15 01:44:55;;;;;;;45.33;24.27;;;;;;;3.00;78.00;101008.12;1574282;91;21273;-77
2022/11/15 01:48:18;;;;;;;40.80;22.13;;;;;;;2.97;77.71;101008.36;1574312;91;21237;-76
2022/11/15 01:51:42;;;;;;;45.33;23.18;;;;;;;3.03;77.31;101010.13;1574143;91;21252;-76
2022/11/15 01:55:15;;;;;;;43.10;25.65;;;;;;;2.72;77.96;101010.09;1574160;91;21395;-77
2022/11/15 01:58:32;;;;;;;43.38;21.75;;;;;;;2.73;77.95;101013.66;1574236;91;21225;-77
2022/11/15 02:01:54;;;;;;;50.03;23.18;;;;;;;2.66;78.26;101013.23;1574325;91;21296;-76
2022/11/15 02:05:18;;;;;;;47.20;22.77;;;;;;;2.68;78.29;101013.12;1574367;89;21276;-76
2022/11/15 02:08:42;;;;;;;49.20;24.98;;;;;;;2.69;78.49;101015.73;1572899;91;21260;-76
2022/11/15 02:12:07;;;;;;;49.00;24.75;;;;;;;2.78;78.09;101014.22;1573456;91;21358;-75
2022/11/15 02:15:34;;;;;;;46.92;25.88;;;;;;;2.88;77.69;101013.08;1574178;91;21233;-77
2022/11/15 02:19:22;;;;;;;42.13;23.30;;;;;;;2.68;78.02;101022.11;1574267;91;21244;-77
2022/11/15 02:23:19;;;;;;;44.55;23.55;;;;;;;2.65;78.40;101024.16;1590973;89;21250;-77
2022/11/15 02:26:59;;;;;;;48.15;23.02;;;;;;;2.77;77.58;101032.23;1607677;89;21217;-77
2022/11/15 02:30:33;;;;;;;57.25;26.35;;;;;;;2.76;77.01;101025.11;1606406;89;21241;-76
2022/11/15 02:34:15;;;;;;;105.25;48.83;;;;;;;2.57;76.78;101019.28;1606649;89;21262;-77
2022/11/15 02:38:02;;;;;;;301.18;120.60;;;;;;;2.64;76.43;101024.66;1602460;89;21217;-77
2022/11/15 02:41:44;;;;;;;171.02;68.80;;;;;;;2.60;76.15;101014.17;1607432;89;21234;-77
2022/11/15 02:45:12;;;;;;;78.80;36.35;;;;;;;2.56;75.60;101010.33;1574684;90;21818;-76
2022/11/15 02:48:35;;;;;;;62.05;27.52;;;;;;;2.52;75.49;101011.50;1600455;89;21287;-76
2022/11/15 02:52:00;;;;;;;53.90;27.32;;;;;;;2.46;76.24;101009.73;1600511;89;21833;-76
2022/11/15 02:55:43;;;;;;;41.90;23.52;;;;;;;2.43;76.65;101018.04;1584536;89;21289;-77
2022/11/15 02:59:21;;;;;;;56.53;29.25;;;;;;;2.44;76.74;101026.02;1600386;89;21242;-76
2022/11/15 03:02:44;;;;;;;65.03;30.60;;;;;;;2.22;77.45;101034.77;1600482;89;21259;-76
2022/11/15 03:06:45;;;;;;;65.60;26.87;;;;;;;2.29;77.25;101028.44;1599723;88;21265;-75
2022/11/15 03:10:21;;;;;;;41.15;19.92;;;;;;;2.26;77.21;101027.33;1599473;89;21262;-76
2022/11/15 03:14:15;;;;;;;37.17;20.95;;;;;;;2.24;77.45;101026.06;1599249;89;21278;-76
2022/11/15 03:17:45;;;;;;;38.13;20.65;;;;;;;2.32;77.55;101021.98;1600475;89;21278;-78
2022/11/15 03:21:09;;;;;;;37.03;20.45;;;;;;;2.19;78.65;101034.96;1600600;89;21524;-76
2022/11/15 03:24:33;;;;;;;40.52;20.17;;;;;;;2.39;78.57;101032.72;1599315;89;21339;-78
2022/11/15 03:28:01;;;;;;;38.28;20.35;;;;;;;2.25;78.90;101035.02;1599348;89;21287;-78
2022/11/15 03:35:16;;;;;;;39.00;21.10;;;;;;;2.26;79.59;101038.98;1600286;89;21291;-78
2022/11/15 03:38:39;;;;;;;36.42;20.37;;;;;;;2.29;79.41;101046.85;1599874;89;21250;-78
2022/11/15 03:42:21;;;;;;;44.08;21.60;;;;;;;2.35;79.09;101036.11;1600087;89;21258;-78
2022/11/15 03:45:50;;;;;;;38.60;21.87;;;;;;;2.41;78.79;101045.16;1598969;89;21293;-78
2022/11/15 03:49:20;;;;;;;25.72;15.75;;;;;;;2.31;79.20;101031.92;1600209;89;21238;-76
2022/11/15 03:52:44;;;;;;;36.88;20.90;;;;;;;2.23;79.46;101031.09;1600386;89;21250;-76
2022/11/15 03:56:08;;;;;;;57.33;21.17;;;;;;;2.27;79.55;101028.56;1600566;89;21833;-76
2022/11/15 03:59:32;;;;;;;51.68;19.90;;;;;;;2.23;79.55;101036.48;1600103;89;21274;-75
2022/11/15 04:02:55;;;;;;;38.80;18.75;;;;;;;2.23;79.48;101043.23;1599316;89;21245;-75
2022/11/15 04:06:18;;;;;;;99.35;20.08;;;;;;;2.17;79.53;101037.41;1600177;88;21222;-76
2022/11/15 04:13:25;;;;;;;47.98;17.37;;;;;;;1.97;79.21;101032.84;1600237;89;21322;-77
2022/11/15 04:16:49;;;;;;;32.78;14.53;;;;;;;1.83;79.20;101025.30;1601603;89;21777;-77
2022/11/15 04:24:14;;;;;;;46.95;16.05;;;;;;;1.56;79.49;101022.16;1601360;89;21234;-77
2022/11/15 04:27:31;;;;;;;24.67;14.33;;;;;;;1.48;79.57;101017.73;1601604;89;21239;-76
2022/11/15 04:30:56;;;;;;;21.60;13.58;;;;;;;1.40;79.59;101025.45;1601546;89;21218;-75
2022/11/15 04:34:21;;;;;;;27.67;14.28;;;;;;;1.37;79.37;101017.10;1601531;89;22031;-76
2022/11/15 04:37:44;;;;;;;27.25;16.17;;;;;;;1.30;79.55;101018.94;1601779;89;21286;-75
2022/11/15 04:41:07;;;;;;;25.50;16.10;;;;;;;1.37;79.21;101010.36;1601482;89;21784;-77
2022/11/15 04:44:32;;;;;;;22.10;15.15;;;;;;;1.39;79.03;101019.20;1601197;89;21274;-77
2022/11/15 04:47:56;;;;;;;24.95;15.40;;;;;;;1.43;79.00;101017.17;1601581;89;21781;-77
2022/11/15 04:51:20;;;;;;;23.30;15.13;;;;;;;1.46;78.94;101021.89;1600712;89;21599;-77
2022/11/15 04:54:43;;;;;;;24.63;16.27;;;;;;;1.42;79.08;101013.63;1600958;89;21261;-76
2022/11/15 04:58:07;;;;;;;23.83;14.87;;;;;;;1.41;78.94;101016.39;1601571;89;21340;-77
2022/11/15 05:01:31;;;;;;;21.35;14.95;;;;;;;1.39;78.80;101026.42;1601647;89;21234;-77
2022/11/15 05:04:56;;;;;;;26.60;15.65;;;;;;;1.30;78.61;101027.02;1600832;89;21240;-77
2022/11/15 05:08:20;;;;;;;19.37;12.93;;;;;;;1.28;78.72;101023.95;1601587;89;21274;-76
2022/11/15 05:11:44;;;;;;;20.65;13.15;;;;;;;1.35;78.63;101012.77;1601326;89;21238;-76
2022/11/15 05:15:07;;;;;;;20.10;12.90;;;;;;;1.33;78.59;101020.09;1597820;88;21246;-77
2022/11/15 05:18:31;;;;;;;17.92;12.10;;;;;;;1.34;78.51;101020.47;1597224;90;21226;-77
2022/11/15 05:21:56;;;;;;;23.00;13.58;;;;;;;1.38;78.38;101032.79;1596221;90;21265;-77
2022/11/15 05:25:15;;;;;;;19.92;14.28;;;;;;;1.46;78.21;101029.12;1596240;90;21812;-77
2022/11/15 05:28:26;;;;;;;24.52;14.07;;;;;;;1.54;77.86;101031.66;1597119;90;21230;-77
2022/11/15 05:31:37;;;;;;;25.75;13.15;;;;;;;1.61;77.49;101033.50;1597087;90;21202;-77
2022/11/15 05:35:00;;;;;;;18.55;12.43;;;;;;;1.68;77.13;101033.45;1596525;90;21806;-78
2022/11/15 05:38:24;;;;;;;20.72;12.45;;;;;;;1.62;77.46;101027.13;1594409;89;21201;-76
2022/11/15 05:41:55;;;;;;;22.55;14.70;;;;;;;1.62;77.37;101027.61;1596436;90;21249;-77
2022/11/15 05:45:20;;;;;;;18.62;13.38;;;;;;;1.70;77.24;101025.28;1596437;90;21230;-76
2022/11/15 05:48:45;;;;;;;22.93;15.80;;;;;;;1.69;77.50;101031.62;1597097;90;21270;-75
2022/11/15 05:52:11;;;;;;;24.52;12.98;;;;;;;1.82;77.86;101028.98;1594516;89;21796;-77
2022/11/15 05:55:29;;;;;;;24.55;16.45;;;;;;;1.96;78.02;101035.66;1596169;90;21249;-76
2022/11/15 05:58:53;;;;;;;29.67;17.85;;;;;;;2.11;78.01;101036.45;1630326;87;21205;-75
2022/11/15 06:02:12;;;;;;;33.53;20.17;;;;;;;2.22;78.01;101038.81;1630911;87;21884;-76
2022/11/15 06:05:40;;;;;;;28.87;18.42;;;;;;;2.37;77.83;101036.89;1679709;83;21395;-75
2022/11/15 06:09:04;;;;;;;27.55;19.77;;;;;;;2.54;77.64;101033.89;1680191;85;21194;-76
2022/11/15 06:12:28;;;;;;;35.83;20.08;;;;;;;2.62;77.73;101033.81;1737381;82;21209;-76
2022/11/15 06:15:53;;;;;;;27.75;17.73;;;;;;;2.61;78.39;101033.45;1716233;81;21303;-76
2022/11/15 06:19:11;;;;;;;30.35;17.45;;;;;;;2.68;79.50;101033.37;1704080;81;21188;-77
2022/11/15 06:22:35;;;;;;;36.30;21.50;;;;;;;2.83;79.81;101028.75;1689317;82;21201;-76
2022/11/15 06:25:52;;;;;;;32.33;18.82;;;;;;;3.01;80.04;101031.00;1699457;81;21205;-77
2022/11/15 06:29:16;;;;;;;41.53;24.40;;;;;;;3.28;79.78;101028.61;1729721;81;21189;-76
2022/11/15 06:32:41;;;;;;;37.03;21.65;;;;;;;3.37;79.87;101028.42;1701502;82;21190;-77
2022/11/15 06:36:10;;;;;;;39.75;22.25;;;;;;;3.53;79.98;101029.04;1696456;82;21223;-77
2022/11/15 06:39:33;;;;;;;36.23;20.35;;;;;;;3.65;80.15;101026.75;1703182;81;21232;-76
2022/11/15 06:42:57;;;;;;;34.85;20.50;;;;;;;3.78;80.31;101011.34;1692278;81;21224;-75
2022/11/15 06:46:21;;;;;;;46.80;23.25;;;;;;;3.95;80.27;101014.13;1715426;82;21196;-76
2022/11/15 06:49:45;;;;;;;53.63;27.20;;;;;;;4.06;80.12;101014.16;1716667;81;21275;-76
2022/11/15 06:53:11;;;;;;;63.83;29.07;;;;;;;4.16;80.09;101018.38;1709270;81;21240;-76
2022/11/15 06:56:35;;;;;;;57.98;30.23;;;;;;;4.32;79.71;101014.84;1716573;81;21264;-77
2022/11/15 07:00:00;;;;;;;69.32;37.03;;;;;;;4.40;79.86;101012.05;1718916;82;21196;-77
2022/11/15 07:03:23;;;;;;;73.72;35.73;;;;;;;4.51;79.90;101014.77;1711245;81;21181;-77
2022/11/15 07:06:48;;;;;;;77.47;34.25;;;;;;;4.63;79.95;101013.81;1697552;81;21219;-76
2022/11/15 07:10:12;;;;;;;63.15;31.50;;;;;;;4.75;79.92;101014.21;1704589;81;21779;-77
2022/11/15 07:13:37;;;;;;;57.45;29.57;;;;;;;4.91;79.82;101010.27;1698521;81;21268;-78
2022/11/15 07:17:01;;;;;;;57.43;29.63;;;;;;;5.07;79.45;101017.03;1687505;82;21913;-78
2022/11/15 07:20:24;;;;;;;58.78;28.35;;;;;;;5.20;79.20;101014.20;1707779;84;21221;-76
2022/11/15 07:23:49;;;;;;;54.40;24.35;;;;;;;5.33;78.48;101006.79;1704726;82;21196;-76
2022/11/15 07:27:14;;;;;;;55.17;26.20;;;;;;;5.34;78.17;101011.72;1717850;81;21352;-76
2022/11/15 07:30:38;;;;;;;59.67;25.82;;;;;;;5.43;77.68;101004.68;1678981;84;21251;-76
2022/11/15 07:33:55;;;;;;;51.13;26.10;;;;;;;5.55;77.53;101008.61;1708949;82;21201;-77
2022/11/15 07:37:09;;;;;;;46.95;24.32;;;;;;;5.77;76.69;101008.16;1697824;81;38239;-77
2022/11/15 07:40:29;;;;;;;41.60;20.52;;;;;;;5.92;75.93;101009.61;1688478;83;21288;-76
2022/11/15 07:43:40;;;;;;;35.65;18.10;;;;;;;5.97;75.41;101001.08;1701734;82;21196;-76
2022/11/15 07:47:03;;;;;;;36.28;19.27;;;;;;;6.10;74.49;101001.77;1696298;82;21228;-78
2022/11/15 07:50:21;;;;;;;36.73;19.12;;;;;;;6.02;74.46;100992.04;1688428;83;21192;-76
2022/11/15 07:53:44;;;;;;;41.15;18.57;;;;;;;6.07;74.00;100993.87;1710052;83;21201;-77
2022/11/15 07:57:10;;;;;;;39.92;19.73;;;;;;;6.11;73.66;100993.48;1682710;83;21216;-77
2022/11/15 08:00:34;;;;;;;28.42;15.65;;;;;;;6.24;73.28;100982.43;1686405;83;21272;-77
2022/11/15 08:03:57;;;;;;;24.30;12.95;;;;;;;6.38;73.36;100978.02;1688403;83;21200;-77
2022/11/15 08:07:21;;;;;;;22.37;12.13;;;;;;;6.49;72.78;100978.94;1656423;83;21206;-77
2022/11/15 08:10:45;;;;;;;23.87;12.47;;;;;;;6.62;72.01;100957.34;1660381;86;21671;-77
2022/11/15 08:14:06;;;;;;;21.87;12.13;;;;;;;6.63;72.41;100956.84;1647811;86;21195;-77
2022/11/15 08:17:20;;;;;;;21.40;11.15;;;;;;;6.78;71.74;100963.67;1649681;86;21352;-78
2022/11/15 08:20:44;;;;;;;19.15;9.63;;;;;;;6.83;70.78;100967.34;1662624;84;21259;-77
2022/11/15 08:24:09;;;;;;;22.77;10.80;;;;;;;6.94;69.21;100959.58;1658534;86;21257;-77
2022/11/15 08:27:36;;;;;;;27.55;10.93;;;;;;;7.00;69.25;100963.09;1665107;86;21201;-77
2022/11/15 08:31:00;;;;;;;17.00;10.10;;;;;;;7.12;68.78;100960.14;1663405;84;21279;-76
2022/11/15 08:34:26;;;;;;;21.87;10.95;;;;;;;7.18;68.77;100949.20;1665425;86;21236;-76
2022/11/15 08:37:43;;;;;;;19.30;10.03;;;;;;;7.35;67.74;100948.54;1635216;84;177882;-77
2022/11/15 08:41:10;;;;;;;21.42;11.10;;;;;;;7.39;67.38;100945.05;1600457;87;21290;-77
2022/11/15 08:44:33;;;;;;;21.10;12.05;;;;;;;7.39;67.26;100940.45;1602274;87;21244;-78
2022/11/15 08:47:58;;;;;;;23.42;11.22;;;;;;;7.53;66.80;100944.64;1600048;87;21258;-76
2022/11/15 08:51:25;;;;;;;23.15;11.48;;;;;;;7.62;66.50;100941.53;1602925;87;21276;-77
2022/11/15 08:54:49;;;;;;;19.00;10.95;;;;;;;7.59;66.58;100937.76;1597548;87;21254;-76
2022/11/15 08:58:13;;;;;;;18.37;9.83;;;;;;;7.73;66.14;100931.89;1604283;87;21209;-78
2022/11/15 09:01:38;;;;;;;21.75;12.30;;;;;;;7.77;65.45;100928.39;1601442;87;21250;-77
2022/11/15 09:05:02;;;;;;;19.12;11.43;;;;;;;7.89;64.98;100918.55;1600727;87;21236;-77
2022/11/15 09:08:28;;;;;;;23.40;12.07;;;;;;;8.00;64.15;100922.11;1598304;87;21442;-77
2022/11/15 09:11:52;;;;;;;16.70;10.25;;;;;;;8.00;63.93;100913.47;1591578;89;21281;-76
2022/11/15 09:15:29;;;;;;;19.65;11.80;;;;;;;8.08;63.54;100900.46;1595033;89;21775;-77
2022/11/15 09:18:58;;;;;;;21.52;10.65;;;;;;;8.18;62.56;100902.16;1595601;87;21232;-79
2022/11/15 09:22:29;;;;;;;16.17;9.68;;;;;;;8.22;62.33;100901.37;1603425;87;21241;-78
2022/11/15 09:25:53;;;;;;;18.15;8.95;;;;;;;8.23;62.03;100898.98;1602128;87;21276;-77
2022/11/15 09:29:17;;;;;;;19.65;8.13;;;;;;;8.13;61.65;100896.28;1605377;87;21229;-78
2022/11/15 09:32:41;;;;;;;10.35;6.17;;;;;;;8.21;61.13;100901.02;1604263;87;21238;-77
2022/11/15 09:36:10;;;;;;;13.05;7.40;;;;;;;8.34;60.63;100893.39;1599880;87;21303;-77
2022/11/15 09:39:34;;;;;;;19.05;9.43;;;;;;;8.42;60.01;100886.73;1612523;87;21851;-82
2022/11/15 09:43:19;;;;;;;18.00;9.50;;;;;;;8.49;60.19;100882.04;1603736;87;21407;-79
2022/11/15 09:47:11;;;;;;;18.17;10.88;;;;;;;8.55;60.29;100875.47;1593407;89;21247;-77
2022/11/15 09:50:25;;;;;;;17.87;10.35;;;;;;;8.58;60.35;100860.69;1595624;89;21766;-78
2022/11/15 09:54:19;;;;;;;15.23;9.13;;;;;;;8.62;60.18;100870.30;1600426;89;21263;-78
2022/11/15 09:57:57;;;;;;;18.30;8.75;;;;;;;8.59;60.32;100865.13;1592964;89;21232;-77
2022/11/15 10:01:26;;;;;;;11.60;6.92;;;;;;;8.69;59.40;100863.22;1582580;89;21224;-77
2022/11/15 10:04:32;;;;;;;14.07;6.75;;;;;;;8.66;59.37;100863.54;1603621;87;21873;-77
2022/11/15 10:08:04;;;;;;;11.68;6.55;;;;;;;8.70;59.33;100863.56;1598565;86;21800;-77
2022/11/15 10:11:14;;;;;;;14.38;7.55;;;;;;;8.77;58.88;100861.11;1600673;87;22440;-78
2022/11/15 10:14:28;;;;;;;16.02;7.33;;;;;;;8.83;58.39;100849.08;1602070;89;21325;-76
2022/11/15 10:18:01;;;;;;;20.23;8.65;;;;;;;8.85;58.48;100838.89;1599560;87;21316;-76
2022/11/15 10:21:12;;;;;;;17.50;9.60;;;;;;;8.87;58.81;100827.30;1597853;89;21551;-76
2022/11/15 10:24:19;;;;;;;16.15;8.28;;;;;;;8.96;58.87;100815.47;1594999;89;21228;-77
2022/11/15 10:27:26;;;;;;;18.67;8.58;;;;;;;9.00;59.13;100811.94;1601149;87;21228;-79
2022/11/15 10:30:40;;;;;;;22.70;11.25;;;;;;;9.02;59.20;100814.50;1603269;87;21230;-78
2022/11/15 10:33:47;;;;;;;15.90;8.88;;;;;;;9.05;59.51;100810.97;1603021;87;21886;-78
2022/11/15 10:36:56;;;;;;;19.32;10.15;;;;;;;9.02;59.72;100798.98;1609316;87;21420;-78
2022/11/15 10:40:14;;;;;;;13.22;7.03;;;;;;;8.97;59.77;100801.32;1589699;89;21344;-78
2022/11/15 10:43:26;;;;;;;12.33;7.10;;;;;;;8.89;59.84;100787.58;1601407;87;22424;-78
2022/11/15 10:46:32;;;;;;;20.48;9.15;;;;;;;8.85;60.06;100787.05;1568797;90;21228;-76
2022/11/15 10:49:43;;;;;;;11.55;6.17;;;;;;;8.92;59.40;100784.05;1579174;89;21540;-78
2022/11/15 10:52:53;;;;;;;8.48;4.67;;;;;;;8.98;59.34;100785.30;1599435;88;21245;-79
2022/11/15 10:56:00;;;;;;;10.48;5.42;;;;;;;9.12;58.78;100771.11;1594712;89;21256;-79
2022/11/15 10:59:06;;;;;;;10.00;5.05;;;;;;;9.21;58.44;100768.81;1590342;88;21862;-78
2022/11/15 11:02:45;;;;;;;9.38;4.67;;;;;;;9.40;58.22;100761.47;1598111;89;21237;-77
2022/11/15 11:05:52;;;;;;;8.63;5.28;;;;;;;9.50;57.76;100766.84;1598215;89;21230;-76
2022/11/15 11:09:10;;;;;;;10.13;4.55;;;;;;;9.82;56.40;100757.52;1603284;88;21270;-76
2022/11/15 11:12:20;;;;;;;23.52;5.95;;;;;;;9.84;55.91;100740.48;1603782;89;22104;-76
2022/11/15 11:15:28;;;;;;;10.48;5.70;;;;;;;9.79;56.25;100740.11;1602588;89;21247;-76
2022/11/15 11:18:43;;;;;;;8.43;4.53;;;;;;;9.82;56.28;100738.40;1600155;89;21443;-75
2022/11/15 11:22:15;;;;;;;5.97;3.90;;;;;;;9.80;55.77;100733.62;1595970;87;21245;-75
2022/11/15 11:25:34;;;;;;;8.93;4.70;;;;;;;9.76;55.54;100725.39;1581603;89;21233;-76
2022/11/15 11:28:53;;;;;;;11.48;4.37;;;;;;;9.58;55.37;100722.70;1604725;89;21225;-77
2022/11/15 11:32:43;;;;;;;7.90;4.53;;;;;;;9.44;55.48;100717.83;1604937;89;21411;-76
2022/11/15 11:36:20;;;;;;;7.78;4.22;;;;;;;9.36;56.17;100713.17;1596224;89;21243;-76
2022/11/15 11:39:48;;;;;;;11.38;5.72;;;;;;;9.22;56.60;100705.52;1597425;87;22296;-75
2022/11/15 11:43:40;;;;;;;12.37;5.33;;;;;;;9.14;56.89;100706.84;1628994;86;21921;-77
2022/11/15 11:47:18;;;;;;;7.47;4.15;;;;;;;9.27;56.52;100700.95;1620046;88;21768;-77
2022/11/15 11:50:29;;;;;;;13.83;4.83;;;;;;;9.37;56.08;100699.87;1631127;86;21335;-77
2022/11/15 11:54:05;;;;;;;6.80;4.50;;;;;;;9.38;55.99;100702.94;1626066;86;21791;-76
2022/11/15 11:57:14;;;;;;;7.53;4.28;;;;;;;9.48;55.64;100688.67;1626623;86;21260;-77
2022/11/15 12:00:28;;;;;;;;;;;;;;;9.47;55.48;100689.70;1630888;88;21261;-76
2022/11/15 12:04:04;;;;;;;8.38;4.75;;;;;;;9.35;55.88;100690.96;1615701;87;20345;-77
2022/11/15 12:07:30;;;;;;;32.88;16.62;;;;;;;9.34;56.10;100676.97;1573637;91;21315;-76
2022/11/15 12:10:46;;;;;;;13.40;5.85;;;;;;;9.29;56.50;100677.11;1548556;92;21885;-76
2022/11/15 12:13:51;;;;;;;12.43;5.30;;;;;;;9.24;56.28;100668.54;1604854;89;21732;-77
2022/11/15 12:16:57;;;;;;;14.05;6.33;;;;;;;9.23;56.09;100669.05;1590212;90;21242;-75
2022/11/15 12:20:09;;;;;;;9.63;5.60;;;;;;;9.09;56.73;100666.38;1598778;89;21362;-76
2022/11/15 12:23:28;;;;;;;11.55;5.92;;;;;;;9.14;56.61;100665.39;1630437;88;21894;-77
2022/11/15 12:26:38;;;;;;;10.95;5.10;;;;;;;9.09;56.46;100662.80;1629283;88;21281;-77
2022/11/15 12:29:56;;;;;;;12.33;5.42;;;;;;;9.03;56.76;100660.67;1630194;88;21242;-76
2022/11/15 12:33:06;;;;;;;10.32;5.33;;;;;;;8.94;57.07;100653.81;1630357;88;21281;-76
2022/11/15 12:36:32;;;;;;;9.20;5.47;;;;;;;8.98;57.06;100649.38;1631026;88;21306;-76
2022/11/15 12:40:14;;;;;;;8.00;5.30;;;;;;;8.96;57.25;100635.40;1598770;89;21228;-77
2022/11/15 12:43:44;;;;;;;8.15;4.37;;;;;;;8.99;57.12;100641.54;1631100;88;21227;-77
2022/11/15 12:46:56;;;;;;;7.50;4.83;;;;;;;8.91;57.39;100632.29;1631305;88;21334;-77
2022/11/15 12:50:02;;;;;;;10.85;5.17;;;;;;;8.90;57.25;100631.95;1599734;89;21308;-78
2022/11/15 12:53:32;;;;;;;11.57;5.37;;;;;;;8.90;57.00;100625.64;1631356;88;21224;-76
2022/11/15 12:56:40;;;;;;;9.68;4.62;;;;;;;8.88;56.75;100620.31;1599866;89;21259;-76
2022/11/15 13:00:12;;;;;;;6.42;4.15;;;;;;;8.63;56.95;100621.13;1630103;88;21239;-76
2022/11/15 13:03:28;;;;;;;8.48;4.35;;;;;;;8.68;57.10;100621.52;1600010;89;21216;-77
2022/11/15 13:06:49;;;;;;;8.45;4.53;;;;;;;8.72;56.64;100612.02;1629906;88;21255;-76
2022/11/15 13:09:58;;;;;;;12.07;4.40;;;;;;;8.65;56.70;100613.13;1598741;89;21779;-76
2022/11/15 13:12:52;;;;;;;9.30;4.58;;;;;;;8.53;56.91;100612.17;1630019;88;21263;-76
2022/11/15 13:16:04;;;;;;;15.65;6.25;;;;;;;8.58;56.67;100607.97;1601128;89;21237;-77
2022/11/15 13:19:11;;;;;;;10.15;4.33;;;;;;;8.56;56.64;100596.84;1631121;88;21220;-76
2022/11/15 13:25:55;;;;;;;9.90;5.10;;;;;;;8.40;57.32;100592.11;1631336;88;21224;-76
2022/11/15 13:29:03;;;;;;;11.00;5.12;;;;;;;8.45;57.29;100602.04;1600332;89;21204;-77
2022/11/15 13:32:09;;;;;;;12.20;5.62;;;;;;;8.39;57.44;100590.41;1629973;88;21243;-75
2022/11/15 13:35:15;;;;;;;10.10;5.80;;;;;;;8.44;57.37;100582.10;1599015;89;21244;-76
2022/11/15 13:38:39;;;;;;;11.85;5.17;;;;;;;8.37;57.44;100586.96;1631176;88;21224;-76
2022/11/15 13:41:49;;;;;;;10.68;5.20;;;;;;;8.33;57.54;100584.19;1598475;89;21255;-76
2022/11/15 13:45:09;;;;;;;12.43;5.67;;;;;;;8.11;58.10;100575.95;1615420;87;21391;-76
2022/11/15 13:48:16;;;;;;;13.30;6.62;;;;;;;7.98;58.54;100576.31;1599940;89;21342;-76
2022/11/15 13:51:35;;;;;;;12.30;7.15;;;;;;;7.93;58.78;100573.19;1580205;89;21379;-76
2022/11/15 13:54:52;;;;;;;16.42;8.40;;;;;;;7.89;58.89;100571.78;1599925;89;21240;-77
2022/11/15 13:58:06;;;;;;;16.45;8.50;;;;;;;7.75;59.31;100563.61;1599762;89;21744;-77
2022/11/15 14:01:13;;;;;;;20.45;9.20;;;;;;;7.70;59.51;100567.30;1599236;89;21252;-76
2022/11/15 14:04:21;;;;;;;21.27;8.75;;;;;;;7.59;59.83;100562.06;1599667;89;21225;-76
2022/11/15 14:07:36;;;;;;;25.00;10.23;;;;;;;7.53;59.97;100551.76;1598491;88;21255;-76
2022/11/15 14:10:43;;;;;;;18.87;9.43;;;;;;;7.46;60.09;100546.07;1599287;89;21289;-76
2022/11/15 14:13:49;;;;;;;23.80;11.53;;;;;;;7.52;59.88;100539.16;1599939;89;21224;-76
2022/11/15 14:16:59;;;;;;;27.02;10.38;;;;;;;7.45;59.83;100539.43;1582078;89;21229;-77
2022/11/15 14:20:06;;;;;;;24.32;9.43;;;;;;;7.23;60.29;100537.94;1600101;89;21229;-76
2022/11/15 14:23:29;;;;;;;20.88;10.53;;;;;;;7.02;60.83;100536.81;1599789;89;21799;-77
2022/11/15 14:26:42;;;;;;;29.12;12.88;;;;;;;6.87;61.22;100528.27;1599911;89;21811;-77
2022/11/15 14:29:47;;;;;;;30.25;14.50;;;;;;;6.68;61.76;100525.09;1598957;89;21273;-77
2022/11/15 14:32:56;;;;;;;31.05;14.05;;;;;;;6.51;62.44;100512.23;1600100;89;21224;-76
2022/11/15 14:36:02;;;;;;;26.05;13.95;;;;;;;6.53;62.38;100511.58;1599932;89;21273;-77
2022/11/15 14:39:08;;;;;;;24.07;12.75;;;;;;;6.51;62.46;100510.88;1598763;89;21308;-76
2022/11/15 14:42:16;;;;;;;26.20;12.47;;;;;;;6.47;62.51;100505.37;1598894;89;21256;-77
2022/11/15 14:45:24;;;;;;;23.75;12.70;;;;;;;6.29;63.00;100500.66;1600046;89;21265;-76
2022/11/15 14:48:29;;;;;;;28.57;13.68;;;;;;;6.17;63.66;100496.91;1600015;89;21265;-77
2022/11/15 14:51:35;;;;;;;35.35;15.18;;;;;;;6.19;63.69;100497.60;1599422;89;21289;-77
2022/11/15 14:54:41;;;;;;;43.63;19.35;;;;;;;5.98;64.31;100482.83;1599952;89;21265;-76
2022/11/15 14:57:47;;;;;;;46.15;22.17;;;;;;;6.05;64.20;100483.95;1599341;89;21249;-77
2022/11/15 15:00:53;;;;;;;53.68;24.82;;;;;;;5.95;64.48;100482.59;1599437;89;21270;-77
2022/11/15 15:03:59;;;;;;;51.53;26.97;;;;;;;5.85;65.02;100472.20;1600039;89;22511;-77
2022/11/15 15:07:05;;;;;;;48.13;23.70;;;;;;;5.89;65.10;100470.92;1599956;89;21225;-78
2022/11/15 15:10:11;;;;;;;56.08;23.47;;;;;;;5.91;65.05;100468.91;1600026;89;21233;-76
2022/11/15 15:13:30;;;;;;;38.90;19.37;;;;;;;5.91;65.22;100464.84;1598155;89;21776;-77
2022/11/15 15:16:35;;;;;;;36.25;18.77;;;;;;;5.92;65.21;100465.22;1599157;89;21799;-76
2022/11/15 15:19:42;;;;;;;32.95;17.02;;;;;;;6.02;65.03;100459.78;1598847;89;21244;-78
2022/11/15 15:22:49;;;;;;;31.82;16.97;;;;;;;6.03;64.87;100460.17;1599029;89;21253;-79
2022/11/15 15:25:55;;;;;;;35.70;18.25;;;;;;;5.94;64.98;100456.45;1599992;89;21229;-78
2022/11/15 15:29:01;;;;;;;38.50;18.05;;;;;;;5.95;65.14;100451.38;1599863;89;21237;-78
2022/11/15 15:32:07;;;;;;;36.77;16.82;;;;;;;5.92;65.18;100448.08;1598885;87;21272;-78
2022/11/15 15:35:13;;;;;;;28.45;15.35;;;;;;;5.93;65.09;100445.23;1598841;89;21304;-78
2022/11/15 15:38:21;;;;;;;31.55;14.43;;;;;;;5.85;65.17;100447.77;1599916;89;21209;-76
2022/11/15 15:41:26;;;;;;;24.82;13.43;;;;;;;5.85;65.15;100444.55;1599863;89;21245;-76
2022/11/15 15:44:31;;;;;;;20.68;10.55;;;;;;;5.82;65.00;100432.61;1600053;89;21225;-76